createdAt,value
2018-07-16T00:00:25.996Z,1030.52
2018-07-16T00:01:25.995Z,1030.54
2018-07-16T00:02:25.989Z,1030.5
2018-07-16T00:03:25.984Z,1030.54
2018-07-16T00:04:25.979Z,1030.51
2018-07-16T00:05:25.976Z,1030.5
2018-07-16T00:06:25.973Z,1030.56
2018-07-16T00:07:25.967Z,1030.59
2018-07-16T00:08:25.963Z,1030.6
2018-07-16T00:09:25.959Z,1030.62
2018-07-16T00:10:25.955Z,1030.58
2018-07-16T00:11:25.954Z,1030.58
2018-07-16T00:12:25.953Z,1030.56
2018-07-16T00:13:25.943Z,1030.55
2018-07-16T00:14:25.939Z,1030.54
2018-07-16T00:15:25.935Z,1030.55
2018-07-16T00:16:25.931Z,1030.55
2018-07-16T00:17:25.928Z,1030.51
2018-07-16T00:18:25.924Z,1030.51
2018-07-16T00:19:25.937Z,1030.52
2018-07-16T00:20:25.916Z,1030.54
2018-07-16T00:21:25.916Z,1030.49
2018-07-16T00:22:25.907Z,1030.53
2018-07-16T00:23:25.907Z,1030.51
2018-07-16T00:24:25.899Z,1030.54
2018-07-16T00:25:25.895Z,1030.52
2018-07-16T00:26:25.891Z,1030.54
2018-07-16T00:27:25.888Z,1030.53
2018-07-16T00:28:25.882Z,1030.54
2018-07-16T00:29:25.878Z,1030.52
2018-07-16T00:30:25.876Z,1030.54
2018-07-16T00:31:25.875Z,1030.52
2018-07-16T00:32:25.865Z,1030.47
2018-07-16T00:33:25.864Z,1030.42
2018-07-16T00:34:25.859Z,1030.43
2018-07-16T00:35:25.855Z,1030.44
2018-07-16T00:36:25.850Z,1030.43
2018-07-16T00:37:25.846Z,1030.45
2018-07-16T00:38:25.841Z,1030.43
2018-07-16T00:39:25.837Z,1030.44
2018-07-16T00:40:25.833Z,1030.43
2018-07-16T00:41:25.829Z,1030.46
2018-07-16T00:42:25.825Z,1030.46
2018-07-16T00:43:25.820Z,1030.45
2018-07-16T00:44:25.829Z,1030.44
2018-07-16T00:45:25.813Z,1030.48
2018-07-16T00:46:25.809Z,1030.48
2018-07-16T00:47:25.806Z,1030.48
2018-07-16T00:48:25.800Z,1030.52
2018-07-16T00:49:25.800Z,1030.51
2018-07-16T00:50:25.791Z,1030.56
2018-07-16T00:51:25.787Z,1030.54
2018-07-16T00:52:25.783Z,1030.56
2018-07-16T00:53:25.780Z,1030.59
2018-07-16T00:54:25.774Z,1030.59
2018-07-16T00:55:25.770Z,1030.6
2018-07-16T00:56:25.772Z,1030.64
2018-07-16T00:57:25.762Z,1030.67
2018-07-16T00:58:25.784Z,1030.67
2018-07-16T00:59:25.755Z,1030.69
2018-07-16T01:00:25.749Z,1030.71
2018-07-16T01:01:25.743Z,1030.7
2018-07-16T01:02:25.739Z,1030.73
2018-07-16T01:03:25.735Z,1030.72
2018-07-16T01:04:25.731Z,1030.72
2018-07-16T01:05:25.733Z,1030.72
2018-07-16T01:06:25.722Z,1030.74
2018-07-16T01:07:25.718Z,1030.69
2018-07-16T01:08:25.714Z,1030.74
2018-07-16T01:09:25.707Z,1030.69
2018-07-16T01:10:25.704Z,1030.72
2018-07-16T01:11:25.703Z,1030.71
2018-07-16T01:12:25.694Z,1030.73
2018-07-16T01:13:25.690Z,1030.72
2018-07-16T01:14:25.686Z,1030.71
2018-07-16T01:15:25.682Z,1030.74
2018-07-16T01:16:25.677Z,1030.76
2018-07-16T01:17:25.672Z,1030.76
2018-07-16T01:18:25.669Z,1030.78
2018-07-16T01:19:25.663Z,1030.78
2018-07-16T01:20:25.658Z,1030.71
2018-07-16T01:21:25.655Z,1030.77
2018-07-16T01:22:25.650Z,1030.75
2018-07-16T01:23:25.644Z,1030.75
2018-07-16T01:24:25.639Z,1030.77
2018-07-16T01:25:25.635Z,1030.74
2018-07-16T01:26:25.632Z,1030.71
2018-07-16T01:27:25.626Z,1030.78
2018-07-16T01:28:25.622Z,1030.8
2018-07-16T01:29:25.617Z,1030.74
2018-07-16T01:30:25.613Z,1030.77
2018-07-16T01:31:25.607Z,1030.81
2018-07-16T01:32:25.603Z,1030.77
2018-07-16T01:33:25.598Z,1030.79
2018-07-16T01:34:25.593Z,1030.81
2018-07-16T01:35:25.590Z,1030.88
2018-07-16T01:36:25.584Z,1030.87
2018-07-16T01:37:25.580Z,1030.9
2018-07-16T01:38:25.575Z,1030.87
2018-07-16T01:39:25.570Z,1030.83
2018-07-16T01:40:25.566Z,1030.8
2018-07-16T01:41:25.561Z,1030.87
2018-07-16T01:42:25.556Z,1030.84
2018-07-16T01:43:25.555Z,1030.79
2018-07-16T01:44:25.547Z,1030.81
2018-07-16T01:45:25.542Z,1030.82
2018-07-16T01:46:25.537Z,1030.82
2018-07-16T01:47:25.534Z,1030.84
2018-07-16T01:48:25.529Z,1030.86
2018-07-16T01:49:25.523Z,1030.82
2018-07-16T01:50:25.522Z,1030.87
2018-07-16T01:51:25.513Z,1030.83
2018-07-16T01:52:25.509Z,1030.87
2018-07-16T01:53:25.504Z,1030.89
2018-07-16T01:54:25.499Z,1030.86
2018-07-16T01:55:25.499Z,1030.89
2018-07-16T01:56:25.490Z,1030.9
2018-07-16T01:57:25.485Z,1030.91
2018-07-16T01:58:25.481Z,1030.91
2018-07-16T01:59:25.479Z,1030.91
2018-07-16T02:00:25.472Z,1030.9
2018-07-16T02:01:25.466Z,1030.95
2018-07-16T02:02:25.461Z,1030.95
2018-07-16T02:03:25.456Z,1030.95
2018-07-16T02:04:25.468Z,1030.94
2018-07-16T02:05:25.447Z,1030.94
2018-07-16T02:06:25.442Z,1030.94
2018-07-16T02:07:25.437Z,1030.91
2018-07-16T02:08:25.432Z,1030.93
2018-07-16T02:09:25.431Z,1030.93
2018-07-16T02:10:25.423Z,1030.94
2018-07-16T02:11:25.417Z,1030.95
2018-07-16T02:12:25.412Z,1030.95
2018-07-16T02:13:25.408Z,1030.92
2018-07-16T02:14:25.422Z,1030.87
2018-07-16T02:15:25.404Z,1030.91
2018-07-16T02:16:25.394Z,1030.91
2018-07-16T02:17:25.388Z,1030.91
2018-07-16T02:18:25.383Z,1030.9
2018-07-16T02:19:25.381Z,1030.87
2018-07-16T02:20:25.374Z,1030.87
2018-07-16T02:21:25.369Z,1030.85
2018-07-16T02:22:25.364Z,1030.86
2018-07-16T02:23:25.359Z,1030.88
2018-07-16T02:24:25.353Z,1030.87
2018-07-16T02:25:25.348Z,1030.87
2018-07-16T02:26:25.343Z,1030.87
2018-07-16T02:27:25.339Z,1030.84
2018-07-16T02:28:25.334Z,1030.84
2018-07-16T02:29:25.328Z,1030.83
2018-07-16T02:30:25.324Z,1030.82
2018-07-16T02:31:25.319Z,1030.83
2018-07-16T02:32:25.315Z,1030.85
2018-07-16T02:33:25.314Z,1030.83
2018-07-16T02:34:25.338Z,1030.81
2018-07-16T02:35:25.299Z,1030.79
2018-07-16T02:36:25.293Z,1030.85
2018-07-16T02:37:25.290Z,1030.85
2018-07-16T02:38:25.285Z,1030.86
2018-07-16T02:39:25.280Z,1030.86
2018-07-16T02:40:25.274Z,1030.85
2018-07-16T02:41:25.270Z,1030.84
2018-07-16T02:42:25.265Z,1030.88
2018-07-16T02:43:25.263Z,1030.88
2018-07-16T02:44:25.271Z,1030.88
2018-07-16T02:45:25.251Z,1030.86
2018-07-16T02:46:25.245Z,1030.86
2018-07-16T02:47:25.239Z,1030.9
2018-07-16T02:48:25.233Z,1030.84
2018-07-16T02:49:25.237Z,1030.84
2018-07-16T02:50:25.224Z,1030.83
2018-07-16T02:51:25.218Z,1030.82
2018-07-16T02:52:25.218Z,1030.84
2018-07-16T02:53:25.209Z,1030.88
2018-07-16T02:54:25.205Z,1030.83
2018-07-16T02:55:25.199Z,1030.81
2018-07-16T02:56:25.229Z,1030.85
2018-07-16T02:57:25.188Z,1030.84
2018-07-16T02:58:25.182Z,1030.84
2018-07-16T02:59:25.182Z,1030.82
2018-07-16T03:00:25.174Z,1030.83
2018-07-16T03:01:25.169Z,1030.84
2018-07-16T03:02:25.163Z,1030.85
2018-07-16T03:03:25.161Z,1030.82
2018-07-16T03:04:25.192Z,1030.82
2018-07-16T03:05:25.148Z,1030.8
2018-07-16T03:06:25.142Z,1030.81
2018-07-16T03:07:25.144Z,1030.81
2018-07-16T03:08:25.133Z,1030.8
2018-07-16T03:09:25.127Z,1030.79
2018-07-16T03:10:25.121Z,1030.81
2018-07-16T03:11:25.120Z,1030.76
2018-07-16T03:12:25.113Z,1030.75
2018-07-16T03:13:25.107Z,1030.77
2018-07-16T03:14:25.104Z,1030.73
2018-07-16T03:15:25.097Z,1030.75
2018-07-16T03:16:25.094Z,1030.74
2018-07-16T03:17:25.089Z,1030.74
2018-07-16T03:18:25.082Z,1030.7
2018-07-16T03:19:25.076Z,1030.72
2018-07-16T03:20:25.072Z,1030.74
2018-07-16T03:21:25.067Z,1030.72
2018-07-16T03:22:25.061Z,1030.74
2018-07-16T03:23:25.057Z,1030.66
2018-07-16T03:24:25.052Z,1030.67
2018-07-16T03:25:25.047Z,1030.63
2018-07-16T03:26:25.041Z,1030.64
2018-07-16T03:27:25.037Z,1030.62
2018-07-16T03:28:25.032Z,1030.62
2018-07-16T03:29:25.040Z,1030.62
2018-07-16T03:30:25.029Z,1030.62
2018-07-16T03:31:25.019Z,1030.64
2018-07-16T03:32:25.012Z,1030.63
2018-07-16T03:33:25.007Z,1030.63
2018-07-16T03:34:25.002Z,1030.64
2018-07-16T03:35:24.996Z,1030.59
2018-07-16T03:36:24.996Z,1030.6
2018-07-16T03:37:24.987Z,1030.57
2018-07-16T03:38:24.981Z,1030.56
2018-07-16T03:39:24.976Z,1030.59
2018-07-16T03:40:24.972Z,1030.54
2018-07-16T03:41:24.966Z,1030.39
2018-07-16T03:42:24.964Z,1030.26
2018-07-16T03:43:24.956Z,1030.08
2018-07-16T03:44:24.954Z,1029.94
2018-07-16T03:45:24.947Z,1029.74
2018-07-16T03:46:24.942Z,1029.51
2018-07-16T03:47:24.939Z,1029.34
2018-07-16T03:48:24.933Z,1029.17
2018-07-16T03:49:24.929Z,1028.94
2018-07-16T03:50:24.924Z,1028.81
2018-07-16T03:51:24.920Z,1028.61
2018-07-16T03:52:24.916Z,1028.46
2018-07-16T03:53:24.912Z,1028.3
2018-07-16T03:54:24.927Z,1028.16
2018-07-16T03:55:24.904Z,1028
2018-07-16T03:56:24.901Z,1027.83
2018-07-16T03:57:24.897Z,1027.68
2018-07-16T03:58:24.895Z,1027.52
2018-07-16T03:59:24.892Z,1027.42
2018-07-16T04:00:24.888Z,1027.3
2018-07-16T04:01:24.885Z,1027.23
2018-07-16T04:02:24.887Z,1027.07
2018-07-16T04:03:24.880Z,1027
2018-07-16T04:04:24.879Z,1026.82
2018-07-16T04:05:24.876Z,1026.67
2018-07-16T04:06:24.875Z,1026.6
2018-07-16T04:07:24.874Z,1026.47
2018-07-16T04:08:24.870Z,1026.33
2018-07-16T04:09:24.870Z,1026.25
2018-07-16T04:10:24.870Z,1026.15
2018-07-16T04:11:24.867Z,1026.04
2018-07-16T04:12:24.869Z,1025.96
2018-07-16T04:13:24.867Z,1025.86
2018-07-16T04:14:24.871Z,1025.73
2018-07-16T04:15:24.871Z,1025.62
2018-07-16T04:16:24.868Z,1025.53
2018-07-16T04:17:24.871Z,1025.42
2018-07-16T04:18:24.870Z,1025.32
2018-07-16T04:19:24.871Z,1025.23
2018-07-16T04:20:24.876Z,1025.18
2018-07-16T04:21:24.874Z,1025.11
2018-07-16T04:22:24.877Z,1025
2018-07-16T04:23:24.877Z,1024.92
2018-07-16T04:24:24.880Z,1024.82
2018-07-16T04:25:24.883Z,1024.76
2018-07-16T04:26:24.885Z,1024.7
2018-07-16T04:27:24.888Z,1024.59
2018-07-16T04:28:24.892Z,1024.53
2018-07-16T04:29:24.896Z,1024.47
2018-07-16T04:30:24.910Z,1024.38
2018-07-16T04:31:24.903Z,1024.3
2018-07-16T04:32:24.907Z,1024.28
2018-07-16T04:33:24.912Z,1024.24
2018-07-16T04:34:24.916Z,1024.14
2018-07-16T04:35:24.922Z,1024.06
2018-07-16T04:36:24.927Z,1024.01
2018-07-16T04:37:24.931Z,1023.91
2018-07-16T04:38:24.937Z,1023.82
2018-07-16T04:39:24.942Z,1023.76
2018-07-16T04:40:24.953Z,1023.68
2018-07-16T04:41:24.954Z,1023.64
2018-07-16T04:42:24.961Z,1023.58
2018-07-16T04:43:24.967Z,1023.51
2018-07-16T04:44:24.973Z,1023.48
2018-07-16T04:45:24.980Z,1023.45
2018-07-16T04:46:24.987Z,1023.44
2018-07-16T04:47:24.994Z,1023.42
2018-07-16T04:48:25.001Z,1023.5
2018-07-16T04:49:25.009Z,1023.53
2018-07-16T04:50:25.017Z,1023.47
2018-07-16T04:51:25.024Z,1023.44
2018-07-16T04:52:25.031Z,1023.38
2018-07-16T04:53:25.040Z,1023.29
2018-07-16T04:54:25.061Z,1023.22
2018-07-16T04:55:25.055Z,1023.12
2018-07-16T04:56:25.064Z,1023.05
2018-07-16T04:57:25.072Z,1022.99
2018-07-16T04:58:25.080Z,1022.94
2018-07-16T04:59:25.092Z,1022.91
2018-07-16T05:00:25.102Z,1022.88
2018-07-16T05:01:25.106Z,1022.81
2018-07-16T05:02:25.114Z,1022.77
2018-07-16T05:03:25.125Z,1022.73
2018-07-16T05:04:25.158Z,1022.71
2018-07-16T05:05:25.144Z,1022.68
2018-07-16T05:06:25.152Z,1022.6
2018-07-16T05:07:25.165Z,1022.56
2018-07-16T05:08:25.171Z,1022.52
2018-07-16T05:09:25.190Z,1022.46
2018-07-16T05:10:25.190Z,1022.45
2018-07-16T05:11:25.200Z,1022.44
2018-07-16T05:12:25.210Z,1022.51
2018-07-16T05:13:25.221Z,1022.54
2018-07-16T05:14:25.230Z,1022.55
2018-07-16T05:15:25.240Z,1022.59
2018-07-16T05:16:25.251Z,1022.63
2018-07-16T05:17:25.261Z,1022.65
2018-07-16T05:18:25.467Z,1022.53
2018-07-16T05:19:25.282Z,1022.44
2018-07-16T05:20:25.293Z,1022.38
2018-07-16T05:21:25.303Z,1022.3
2018-07-16T05:22:25.315Z,1022.31
2018-07-16T05:23:25.325Z,1022.37
2018-07-16T05:24:25.335Z,1022.38
2018-07-16T05:25:25.347Z,1022.39
2018-07-16T05:26:25.358Z,1022.38
2018-07-16T05:27:25.369Z,1022.34
2018-07-16T05:28:25.379Z,1022.3
2018-07-16T05:29:25.391Z,1022.21
2018-07-16T05:30:25.403Z,1022.17
2018-07-16T05:31:25.462Z,1022.15
2018-07-16T05:32:25.750Z,1022.18
2018-07-16T05:33:25.440Z,1022.19
2018-07-16T05:34:25.449Z,1022.21
2018-07-16T05:35:25.459Z,1022.2
2018-07-16T05:36:25.472Z,1022.2
2018-07-16T05:37:25.485Z,1022.2
2018-07-16T05:38:25.496Z,1022.27
2018-07-16T05:39:25.507Z,1022.29
2018-07-16T05:40:25.520Z,1022.27
2018-07-16T05:41:25.532Z,1022.3
2018-07-16T05:42:25.548Z,1022.41
2018-07-16T05:43:25.555Z,1022.46
2018-07-16T05:44:25.569Z,1022.59
2018-07-16T05:45:25.581Z,1022.8
2018-07-16T05:46:25.594Z,1022.96
2018-07-16T05:47:25.605Z,1023
2018-07-16T05:49:25.630Z,1022.81
2018-07-16T05:50:25.643Z,1022.71
2018-07-16T05:51:25.656Z,1022.58
2018-07-16T05:52:25.667Z,1022.51
2018-07-16T05:53:25.678Z,1022.5
2018-07-16T05:54:25.692Z,1022.4
2018-07-16T05:55:25.702Z,1022.3
2018-07-16T05:56:25.714Z,1022.34
2018-07-16T05:57:25.726Z,1022.28
2018-07-16T05:58:25.738Z,1022.25
2018-07-16T05:59:26.767Z,1022.21
2018-07-16T06:00:25.764Z,1022.14
2018-07-16T06:01:25.780Z,1022.14
2018-07-16T06:02:25.790Z,1022.19
2018-07-16T06:03:25.801Z,1022.25
2018-07-16T06:04:25.874Z,1022.38
2018-07-16T06:05:25.825Z,1022.41
2018-07-16T06:06:25.838Z,1022.34
2018-07-16T06:07:25.851Z,1022.2
2018-07-16T06:08:25.863Z,1022.06
2018-07-16T06:09:25.875Z,1021.93
2018-07-16T06:10:25.888Z,1021.76
2018-07-16T06:11:25.900Z,1021.7
2018-07-16T06:12:25.918Z,1021.57
2018-07-16T06:13:25.925Z,1021.52
2018-07-16T06:14:26.023Z,1021.51
2018-07-16T06:15:25.953Z,1021.54
2018-07-16T06:16:25.964Z,1021.58
2018-07-16T06:17:25.980Z,1021.5
2018-07-16T06:18:25.991Z,1021.5
2018-07-16T06:19:26.003Z,1021.47
2018-07-16T06:20:26.017Z,1021.43
2018-07-16T06:21:26.030Z,1021.38
2018-07-16T06:22:26.044Z,1021.26
2018-07-16T06:23:26.057Z,1021.18
2018-07-16T06:24:26.070Z,1021.1
2018-07-16T06:25:26.085Z,1021.04
2018-07-16T06:26:26.098Z,1021.11
2018-07-16T06:27:26.111Z,1021.1
2018-07-16T06:28:26.125Z,1021.14
2018-07-16T06:29:26.145Z,1021.05
2018-07-16T06:30:26.154Z,1020.97
2018-07-16T06:31:26.166Z,1020.95
2018-07-16T06:32:26.213Z,1020.91
2018-07-16T06:33:26.194Z,1020.82
2018-07-16T06:34:26.211Z,1020.75
2018-07-16T06:35:26.222Z,1020.72
2018-07-16T06:36:26.236Z,1020.65
2018-07-16T06:37:26.253Z,1020.57
2018-07-16T06:38:26.265Z,1020.51
2018-07-16T06:39:26.279Z,1020.46
2018-07-16T06:40:26.409Z,1020.39
2018-07-16T06:41:26.840Z,1020.38
2018-07-16T06:42:26.325Z,1020.39
2018-07-16T06:43:26.339Z,1020.35
2018-07-16T06:44:26.353Z,1020.31
2018-07-16T06:45:26.367Z,1020.34
2018-07-16T06:46:26.381Z,1020.37
2018-07-16T06:47:26.396Z,1020.39
2018-07-16T06:48:26.414Z,1020.34
2018-07-16T06:49:26.425Z,1020.13
2018-07-16T06:50:26.440Z,1019.88
2018-07-16T06:51:26.456Z,1019.61
2018-07-16T06:52:26.470Z,1019.56
2018-07-16T06:53:26.486Z,1019.47
2018-07-16T06:54:26.501Z,1019.4
2018-07-16T06:55:26.517Z,1019.33
2018-07-16T06:56:26.533Z,1019.31
2018-07-16T06:57:26.548Z,1019.31
2018-07-16T06:58:26.569Z,1019.22
2018-07-16T06:59:26.580Z,1019.16
2018-07-16T07:00:26.604Z,1019.09
2018-07-16T07:01:26.613Z,1019
2018-07-16T07:02:26.631Z,1018.87
2018-07-16T07:03:26.647Z,1018.79
2018-07-16T07:04:26.664Z,1018.76
2018-07-16T07:05:26.682Z,1018.73
2018-07-16T07:06:26.701Z,1018.72
2018-07-16T07:07:26.718Z,1018.71
2018-07-16T07:08:26.739Z,1018.72
2018-07-16T07:09:26.750Z,1018.62
2018-07-16T07:10:26.768Z,1018.95
2018-07-16T07:11:26.787Z,1019.23
2018-07-16T07:12:26.805Z,1019.39
2018-07-16T07:13:26.823Z,1019.53
2018-07-16T07:14:26.839Z,1019.7
2018-07-16T07:15:26.859Z,1019.92
2018-07-16T07:16:26.874Z,1019.98
2018-07-16T07:17:26.894Z,1019.93
2018-07-16T07:18:26.909Z,1019.88
2018-07-16T07:19:26.927Z,1019.88
2018-07-16T07:20:26.945Z,1020.01
2018-07-16T07:21:26.960Z,1020.04
2018-07-16T07:22:26.978Z,1020.08
2018-07-16T07:23:26.995Z,1020.07
2018-07-16T07:24:27.012Z,1020.02
2018-07-16T07:25:27.051Z,1019.95
2018-07-16T07:26:27.047Z,1019.92
2018-07-16T07:27:27.063Z,1019.91
2018-07-16T07:28:27.079Z,1019.88
2018-07-16T07:29:27.095Z,1019.81
2018-07-16T07:30:27.112Z,1019.74
2018-07-16T07:31:27.132Z,1019.79
2018-07-16T07:32:27.144Z,1019.91
2018-07-16T07:33:27.162Z,1020.07
2018-07-16T07:34:27.180Z,1020.24
2018-07-16T07:35:27.203Z,1020.37
2018-07-16T07:36:27.214Z,1020.46
2018-07-16T07:37:27.228Z,1020.62
2018-07-16T07:38:27.245Z,1020.6
2018-07-16T07:39:27.261Z,1020.48
2018-07-16T07:40:27.277Z,1020.31
2018-07-16T07:41:27.293Z,1020.15
2018-07-16T07:42:27.310Z,1020.04
2018-07-16T07:43:27.324Z,1019.88
2018-07-16T07:44:27.344Z,1019.87
2018-07-16T07:45:27.358Z,1019.91
2018-07-16T07:46:27.374Z,1019.95
2018-07-16T07:47:27.390Z,1019.97
2018-07-16T07:48:27.407Z,1019.99
2018-07-16T07:49:27.422Z,1020.02
2018-07-16T07:50:27.455Z,1019.99
2018-07-16T07:51:27.472Z,1019.88
2018-07-16T07:52:27.471Z,1019.87
2018-07-16T07:53:27.488Z,1019.88
2018-07-16T07:54:27.575Z,1020.05
2018-07-16T07:55:27.582Z,1020.13
2018-07-16T07:56:27.535Z,1020.26
2018-07-16T07:57:27.551Z,1020.28
2018-07-16T07:58:27.567Z,1020.28
2018-07-16T07:59:27.585Z,1020.2
2018-07-16T08:00:27.602Z,1020.19
2018-07-16T08:01:27.615Z,1020.15
2018-07-16T08:02:27.632Z,1020.11
2018-07-16T08:03:27.759Z,1020.08
2018-07-16T08:04:27.663Z,1020
2018-07-16T08:05:27.677Z,1019.91
2018-07-16T08:06:27.694Z,1019.91
2018-07-16T08:07:27.710Z,1019.81
2018-07-16T08:08:27.726Z,1019.74
2018-07-16T08:09:27.741Z,1019.61
2018-07-16T08:10:27.756Z,1019.53
2018-07-16T08:11:27.772Z,1019.45
2018-07-16T08:12:27.788Z,1019.41
2018-07-16T08:13:27.805Z,1019.39
2018-07-16T08:14:27.821Z,1019.32
2018-07-16T08:15:27.839Z,1019.38
2018-07-16T08:16:27.853Z,1019.42
2018-07-16T08:17:27.868Z,1019.47
2018-07-16T08:18:27.886Z,1019.56
2018-07-16T08:19:27.901Z,1019.71
2018-07-16T08:20:27.915Z,1019.72
2018-07-16T08:21:27.931Z,1019.67
2018-07-16T08:22:27.947Z,1019.61
2018-07-16T08:23:27.963Z,1019.55
2018-07-16T08:24:27.979Z,1019.53
2018-07-16T08:25:28.005Z,1019.48
2018-07-16T08:26:28.011Z,1019.38
2018-07-16T08:27:28.024Z,1019.37
2018-07-16T08:28:28.041Z,1019.42
2018-07-16T08:29:28.056Z,1019.55
2018-07-16T08:30:28.076Z,1019.65
2018-07-16T08:31:28.087Z,1019.82
2018-07-16T08:32:28.104Z,1019.78
2018-07-16T08:33:28.155Z,1019.84
2018-07-16T08:34:28.147Z,1019.81
2018-07-16T08:35:28.148Z,1019.86
2018-07-16T08:36:28.163Z,1019.84
2018-07-16T08:37:28.195Z,1019.81
2018-07-16T08:38:28.193Z,1019.87
2018-07-16T08:39:28.208Z,1019.84
2018-07-16T08:40:28.227Z,1019.81
2018-07-16T08:41:28.246Z,1019.75
2018-07-16T08:42:28.252Z,1019.73
2018-07-16T08:43:28.268Z,1019.7
2018-07-16T08:44:28.283Z,1019.6
2018-07-16T08:45:28.299Z,1019.61
2018-07-16T08:46:28.318Z,1019.54
2018-07-16T08:47:28.328Z,1019.41
2018-07-16T08:48:28.344Z,1019.3
2018-07-16T08:49:28.359Z,1019.27
2018-07-16T08:50:28.373Z,1019.22
2018-07-16T08:51:28.387Z,1019.17
2018-07-16T08:52:28.403Z,1019.12
2018-07-16T08:53:28.420Z,1019.14
2018-07-16T08:54:28.432Z,1019.15
2018-07-16T08:55:28.447Z,1019.3
2018-07-16T08:56:28.462Z,1019.48
2018-07-16T08:57:28.481Z,1019.97
2018-07-16T08:58:28.492Z,1020.67
2018-07-16T08:59:28.507Z,1021.33
2018-07-16T09:00:28.520Z,1021.91
2018-07-16T09:01:28.541Z,1022.44
2018-07-16T09:02:28.549Z,1022.94
2018-07-16T09:03:28.563Z,1023.32
2018-07-16T09:04:28.577Z,1023.83
2018-07-16T09:05:28.593Z,1024.2
2018-07-16T09:06:28.602Z,1024.5
2018-07-16T09:07:28.613Z,1024.71
2018-07-16T09:08:28.625Z,1024.84
2018-07-16T09:09:28.640Z,1024.98
2018-07-16T09:12:28.669Z,1025.28
2018-07-16T09:13:28.807Z,1025.4
2018-07-16T09:14:28.688Z,1025.41
2018-07-16T09:15:28.697Z,1025.52
2018-07-16T09:16:28.706Z,1025.58
2018-07-16T09:17:28.716Z,1025.65
2018-07-16T09:18:28.723Z,1025.75
2018-07-16T09:19:28.732Z,1025.75
2018-07-16T09:20:28.745Z,1025.77
2018-07-16T09:21:28.749Z,1025.79
2018-07-16T09:22:28.756Z,1025.89
2018-07-16T09:23:28.774Z,1025.94
2018-07-16T09:24:28.772Z,1026.02
2018-07-16T09:25:28.835Z,1026.12
2018-07-16T09:26:28.786Z,1026.14
2018-07-16T09:27:28.793Z,1026.2
2018-07-16T09:28:28.800Z,1026.27
2018-07-16T09:29:28.807Z,1026.4
2018-07-16T09:30:28.816Z,1026.43
2018-07-16T09:31:28.821Z,1026.49
2018-07-16T09:32:28.825Z,1026.51
2018-07-16T09:33:28.832Z,1026.53
2018-07-16T09:34:28.837Z,1026.59
2018-07-16T09:35:28.848Z,1026.61
2018-07-16T09:36:28.851Z,1026.61
2018-07-16T09:37:28.859Z,1026.61
2018-07-16T09:38:28.919Z,1026.61
2018-07-16T09:39:28.866Z,1026.74
2018-07-16T09:40:28.869Z,1026.84
2018-07-16T09:41:28.875Z,1026.86
2018-07-16T09:42:28.942Z,1026.87
2018-07-16T09:43:28.885Z,1026.9
2018-07-16T09:44:28.945Z,1026.89
2018-07-16T09:45:28.894Z,1026.93
2018-07-16T09:46:28.899Z,1026.92
2018-07-16T09:47:28.903Z,1026.87
2018-07-16T09:48:28.908Z,1026.97
2018-07-16T09:49:28.913Z,1026.89
2018-07-16T09:50:28.918Z,1026.88
2018-07-16T09:51:28.920Z,1026.89
2018-07-16T09:52:28.926Z,1026.93
2018-07-16T09:53:28.928Z,1026.91
2018-07-16T09:54:28.934Z,1026.87
2018-07-16T09:55:28.934Z,1026.82
2018-07-16T09:56:29.012Z,1026.82
2018-07-16T09:57:28.943Z,1026.89
2018-07-16T09:58:28.953Z,1026.85
2018-07-16T09:59:28.950Z,1026.84
2018-07-16T10:00:28.954Z,1026.86
2018-07-16T10:01:28.957Z,1026.85
2018-07-16T10:02:28.959Z,1026.77
2018-07-16T10:03:28.963Z,1026.75
2018-07-16T10:04:28.967Z,1026.71
2018-07-16T10:05:28.970Z,1026.66
2018-07-16T10:06:28.972Z,1026.68
2018-07-16T10:07:28.980Z,1026.64
2018-07-16T10:08:29.032Z,1026.63
2018-07-16T10:09:28.988Z,1026.62
2018-07-16T10:10:28.990Z,1026.64
2018-07-16T10:11:28.997Z,1026.65
2018-07-16T10:12:28.995Z,1026.68
2018-07-16T10:13:28.995Z,1026.72
2018-07-16T10:14:28.998Z,1026.68
2018-07-16T10:15:29.001Z,1026.7
2018-07-16T10:16:29.007Z,1026.69
2018-07-16T10:17:29.006Z,1026.64
2018-07-16T10:18:29.012Z,1026.62
2018-07-16T10:19:29.013Z,1026.62
2018-07-16T10:20:29.060Z,1026.61
2018-07-16T10:21:29.019Z,1026.58
2018-07-16T10:22:29.022Z,1026.47
2018-07-16T10:23:29.025Z,1026.48
2018-07-16T10:24:29.028Z,1026.45
2018-07-16T10:25:29.031Z,1026.39
2018-07-16T10:26:29.039Z,1026.37
2018-07-16T10:27:29.041Z,1026.46
2018-07-16T10:28:29.040Z,1026.36
2018-07-16T10:29:29.043Z,1026.36
2018-07-16T10:30:29.046Z,1026.39
2018-07-16T10:31:29.049Z,1026.5
2018-07-16T10:32:29.056Z,1026.44
2018-07-16T10:33:29.056Z,1026.46
2018-07-16T10:34:29.059Z,1026.4
2018-07-16T10:35:29.065Z,1026.43
2018-07-16T10:36:29.064Z,1026.35
2018-07-16T10:37:29.068Z,1026.31
2018-07-16T10:38:29.071Z,1026.26
2018-07-16T10:39:29.114Z,1026.24
2018-07-16T10:40:29.076Z,1026.21
2018-07-16T10:41:29.080Z,1026.15
2018-07-16T10:42:29.083Z,1026.11
2018-07-16T10:43:29.085Z,1026.12
2018-07-16T10:44:29.090Z,1026.16
2018-07-16T10:45:29.098Z,1026.12
2018-07-16T10:46:29.095Z,1026.14
2018-07-16T10:47:29.098Z,1026.12
2018-07-16T10:48:29.104Z,1026.09
2018-07-16T10:49:29.105Z,1026.06
2018-07-16T10:50:29.108Z,1026.1
2018-07-16T10:51:29.111Z,1026.03
2018-07-16T10:52:29.119Z,1026.06
2018-07-16T10:53:29.128Z,1026.03
2018-07-16T10:54:29.120Z,1026.04
2018-07-16T10:55:29.126Z,1026.07
2018-07-16T10:56:29.127Z,1026.1
2018-07-16T10:57:29.129Z,1026.14
2018-07-16T10:58:29.134Z,1026.13
2018-07-16T10:59:29.136Z,1026.03
2018-07-16T11:00:29.143Z,1025.98
2018-07-16T11:01:29.146Z,1025.9
2018-07-16T11:02:29.145Z,1025.83
2018-07-16T11:03:29.157Z,1025.76
2018-07-16T11:04:29.154Z,1025.68
2018-07-16T11:05:29.242Z,1025.67
2018-07-16T11:06:29.158Z,1025.71
2018-07-16T11:07:29.163Z,1025.72
2018-07-16T11:08:29.164Z,1025.67
2018-07-16T11:09:29.168Z,1025.72
2018-07-16T11:10:29.171Z,1025.72
2018-07-16T11:11:29.175Z,1025.66
2018-07-16T11:12:29.177Z,1025.65
2018-07-16T11:13:29.194Z,1025.6
2018-07-16T11:14:29.184Z,1025.64
2018-07-16T11:15:29.186Z,1025.64
2018-07-16T11:16:29.193Z,1025.66
2018-07-16T11:17:29.194Z,1025.7
2018-07-16T11:18:29.204Z,1025.74
2018-07-16T11:19:29.205Z,1025.73
2018-07-16T11:20:29.204Z,1025.73
2018-07-16T11:21:29.221Z,1025.82
2018-07-16T11:22:29.231Z,1025.79
2018-07-16T11:23:29.214Z,1025.8
2018-07-16T11:24:29.218Z,1025.86
2018-07-16T11:25:29.221Z,1025.86
2018-07-16T11:26:29.223Z,1025.84
2018-07-16T11:27:29.228Z,1025.83
2018-07-16T11:28:29.236Z,1025.84
2018-07-16T11:29:29.234Z,1025.8
2018-07-16T11:30:29.250Z,1025.79
2018-07-16T11:31:29.239Z,1025.79
2018-07-16T11:32:29.242Z,1025.74
2018-07-16T11:33:29.257Z,1025.73
2018-07-16T11:34:29.248Z,1025.73
2018-07-16T11:35:29.293Z,1025.73
2018-07-16T11:36:29.255Z,1025.72
2018-07-16T11:37:29.261Z,1025.72
2018-07-16T11:38:29.260Z,1025.69
2018-07-16T11:39:29.272Z,1025.66
2018-07-16T11:40:29.267Z,1025.58
2018-07-16T11:41:29.268Z,1025.5
2018-07-16T11:42:29.272Z,1025.47
2018-07-16T11:43:29.275Z,1025.45
2018-07-16T11:44:29.277Z,1025.46
2018-07-16T11:45:29.280Z,1025.38
2018-07-16T11:46:29.284Z,1025.35
2018-07-16T11:47:29.286Z,1025.34
2018-07-16T11:48:29.294Z,1025.34
2018-07-16T11:49:29.293Z,1025.33
2018-07-16T11:50:29.301Z,1025.3
2018-07-16T11:51:29.301Z,1025.29
2018-07-16T11:52:29.303Z,1025.3
2018-07-16T11:53:29.307Z,1025.26
2018-07-16T11:54:29.310Z,1025.29
2018-07-16T11:55:29.320Z,1025.32
2018-07-16T11:56:29.315Z,1025.3
2018-07-16T11:57:29.319Z,1025.29
2018-07-16T11:58:29.323Z,1025.27
2018-07-16T11:59:29.325Z,1025.2
2018-07-16T12:00:29.329Z,1025.18
2018-07-16T12:01:29.333Z,1025.21
2018-07-16T12:02:29.336Z,1025.16
2018-07-16T12:03:29.394Z,1025.14
2018-07-16T12:04:29.343Z,1025.17
2018-07-16T12:05:29.346Z,1025.17
2018-07-16T12:06:29.349Z,1025.14
2018-07-16T12:07:29.353Z,1025.16
2018-07-16T12:08:29.354Z,1025.14
2018-07-16T12:09:29.358Z,1025.11
2018-07-16T12:10:29.360Z,1025.21
2018-07-16T12:11:29.365Z,1025.14